Terminal Aerodrome Forecast
Issued by NWS

Home | Current Version | Previous Version | Text Only | Print | Product List | Glossary On
Versions: 1 2 3 4 5 6 7 8 9 10 11 12 13 14 15 16 17 18 19
000
FTUS41 KPBZ 310500
TAFAGC
TAF
KAGC 310520Z 3106/0106 VRB03KT P6SM OVC050
     FM311800 21004KT 4SM -RA OVC025
     FM010200 26004KT 3SM -RA BR BKN015 OVC025=

USA.gov is the U.S. government's official web portal to all federal, state and local government web resources and services.